Aeroporto :
LOGIN :

Iscrizione | Disclaimer

   EN    FR    IT 

 










Sommario :    VFR   VFR Marginale   IFR   IFR Intensivo   IFR Molto Intensivo
Visibilità : 
Base nubi : 
>= 8 km
>= 3000ft
5 / 8 km
1000 / 3000 ft
1500m / 5 km
500 / 1000 ft
800 / 1500m
200 / 500 ft
< 800m
< 200 ft
Simboli :   Temporali  Nebbia  Neve Forte  Precipitazioni Forti  Vento > 20 kt
SIGMETs :   Varie  Temporali  Ghiacco  Turbolenza  Onda orograficha  Ceneri Vulcaniche






- Altitudine del aeroporto : 19 ft
- Codice IATA : LCY


EGLC - London City

ULTIMO METAR :
  • 191650Z AUTO 24006KT 9999 NCD 14/07 Q1002

METARs OBSOLETI :
  • 191620Z AUTO 24008KT 9999 NCD 14/07 Q1002
  • 191550Z AUTO 25008KT 9999 FEW039 14/08 Q1001
  • 191520Z AUTO 26010KT 9999 -RA SCT039 BKN047 14/08 Q1001
  • 191450Z AUTO 28010KT 9999 SCT039 BKN046 14/08 Q1001
  • 191420Z AUTO 26010KT 9999 SCT038 15/07 Q1001
  • 191350Z AUTO 23010KT 200V270 9999 FEW040 16/07 Q1001

TAF TAF EGLC
Valido dal 19 a 09 ore il 19 a 18 ore UTC


190756Z 1909/1918 20008KT 9999 SCT030
ATIS : +44 20 7646 0224



MetMap, La meteo Aeronautica in un colpo d'occhio ! - Copyright ORBIFLY Dicembre 2007 - Disclaimer

ORBIFLY MET'MAP TEAM :

Programmazione e sviluppo : Alexandra Zaïnal
Concezione e sviluppo : Baudouin d'Aumeries
Co-Programmazione e sviluppo : Marc-Olivier Méhu
Supporto tecnico e logistico : Manuel Goepfert
Aiuto per la traduzione : Arnaldo La Scala

Contatto : metmap@orbifly.com




FONTI E CREDITI :

   NOAA